Bakchar, Russia
Current Conditions -  °F | °C
As of 12:00 PM on Saturday 29 Nov 2014 (Local Time) from UNTT Reporting Station
Clear Clear  
Wind Chill: -47°   Ceiling: Unl
Heat Index: -24°   Visibility: 6mi
Dew Point: -29°   Wind: 11mph
Humidity: 76%   Direction: 200°SSW
Pressure: 30.77"   Gusts: NA
Location:  57.02°N, 82.07°E
Report Text: UNTT 290500Z 20005MPS CAVOK M31/M34 Q1042 NOSIG RMK QFE76621420145
Loading
Personal Weather Stations






























Interactive Weather Map New forecast layout! Learn more

10-Day Weather Forecast

Advertisements
Track Severe Weather on mobile